createdAt,value
2023-10-16T00:00:31.803Z,101166.44
2023-10-16T00:03:01.932Z,101171.84
2023-10-16T00:05:33.743Z,101170.72
2023-10-16T00:08:06.884Z,101166.19
2023-10-16T00:10:35.296Z,101170.72
2023-10-16T00:13:06.607Z,101169.06
2023-10-16T00:15:42.252Z,101169.91
2023-10-16T00:18:14.689Z,101161.78
2023-10-16T00:20:43.440Z,101166.66
2023-10-16T00:23:12.552Z,101175.03
2023-10-16T00:25:41.005Z,101177.66
2023-10-16T00:28:09.636Z,101184.47
2023-10-16T00:30:41.771Z,101176.59
2023-10-16T00:33:13.114Z,101180.78
2023-10-16T00:35:42.627Z,101182.72
2023-10-16T00:38:13.970Z,101182.84
2023-10-16T00:40:45.443Z,101181.06
2023-10-16T00:43:18.633Z,101174.97
2023-10-16T00:45:51.165Z,101177.69
2023-10-16T00:48:20.542Z,101177.97
2023-10-16T00:50:49.688Z,101174.81
2023-10-16T00:53:21.623Z,101175.69
2023-10-16T00:55:50.576Z,101178.38
2023-10-16T00:58:18.456Z,101175.75
2023-10-16T01:00:48.820Z,101163.00
2023-10-16T01:03:18.533Z,101172.94
2023-10-16T01:05:52.293Z,101164.06
2023-10-16T01:08:20.557Z,101159.91
2023-10-16T01:10:49.812Z,101154.16
2023-10-16T01:13:18.202Z,101153.22
2023-10-16T01:15:47.976Z,101157.00
2023-10-16T01:18:16.832Z,101143.66
2023-10-16T01:20:50.045Z,101149.63
2023-10-16T01:23:20.753Z,101146.66
2023-10-16T01:25:49.843Z,101144.03
2023-10-16T01:28:19.014Z,101141.41
2023-10-16T01:30:48.515Z,101137.09
2023-10-16T01:33:17.986Z,101146.66
2023-10-16T01:35:46.956Z,101137.22
2023-10-16T01:38:17.965Z,101147.00
2023-10-16T01:41:04.802Z,101147.94
2023-10-16T01:43:33.819Z,101145.44
2023-10-16T01:46:02.797Z,101149.88
2023-10-16T01:48:30.886Z,101154.41
2023-10-16T01:50:58.709Z,101151.91
2023-10-16T01:53:28.623Z,101165.03
2023-10-16T01:55:57.710Z,101158.94
2023-10-16T01:58:26.053Z,101162.78
2023-10-16T02:00:56.093Z,101156.53
2023-10-16T02:03:27.103Z,101158.22
2023-10-16T02:05:55.799Z,101156.44
2023-10-16T02:08:24.430Z,101146.66
2023-10-16T02:10:53.624Z,101146.53
2023-10-16T02:13:23.002Z,101144.38
2023-10-16T02:15:50.873Z,101137.69
2023-10-16T02:18:24.225Z,101138.13
2023-10-16T02:20:53.746Z,101130.25
2023-10-16T02:23:21.764Z,101132.69
2023-10-16T02:25:49.486Z,101125.63
2023-10-16T02:28:20.987Z,101128.38
2023-10-16T02:30:51.486Z,101130.25
2023-10-16T02:33:24.236Z,101120.38
2023-10-16T02:35:54.592Z,101130.88
2023-10-16T02:38:30.187Z,101122.41
2023-10-16T02:41:04.281Z,101125.88
2023-10-16T02:43:32.989Z,101125.13
2023-10-16T02:46:03.431Z,101123.47
2023-10-16T02:48:31.586Z,101120.38
2023-10-16T02:51:00.197Z,101122.78
2023-10-16T02:53:30.296Z,101119.91
2023-10-16T02:56:00.130Z,101120.03
2023-10-16T02:58:28.334Z,101125.66
2023-10-16T03:00:57.955Z,101129.09
2023-10-16T03:03:28.670Z,101130.19
2023-10-16T03:05:59.117Z,101126.25
2023-10-16T03:08:31.471Z,101132.44
2023-10-16T03:11:00.521Z,101141.63
2023-10-16T03:13:28.209Z,101135.41
2023-10-16T03:16:06.756Z,101133.88
2023-10-16T03:18:36.623Z,101139.25
2023-10-16T03:21:27.722Z,101132.19
2023-10-16T03:23:56.043Z,101137.34
2023-10-16T03:26:26.532Z,101144.38
2023-10-16T03:28:55.210Z,101148.78
2023-10-16T03:31:23.508Z,101139.13
2023-10-16T03:33:56.106Z,101142.72
2023-10-16T03:36:24.762Z,101144.50
2023-10-16T03:38:52.860Z,101139.34
2023-10-16T03:41:28.976Z,101147.00
2023-10-16T03:43:59.885Z,101145.22
2023-10-16T03:46:28.026Z,101150.47
2023-10-16T03:48:58.908Z,101149.50
2023-10-16T03:51:27.480Z,101147.59
2023-10-16T03:53:57.771Z,101148.06
2023-10-16T03:56:26.274Z,101155.72
2023-10-16T03:58:54.721Z,101152.59
2023-10-16T04:01:25.250Z,101149.03
2023-10-16T04:03:57.611Z,101142.81
2023-10-16T04:06:28.886Z,101146.28
2023-10-16T04:08:59.319Z,101140.75
2023-10-16T04:11:27.090Z,101142.53
2023-10-16T04:13:55.171Z,101136.91
2023-10-16T04:16:38.122Z,101130.34
2023-10-16T04:19:37.159Z,101139.63
2023-10-16T04:22:09.901Z,101132.81
2023-10-16T04:24:46.859Z,101126.38
2023-10-16T04:27:35.165Z,101131.84
2023-10-16T04:30:20.818Z,101127.03
2023-10-16T04:33:06.456Z,101126.41
2023-10-16T04:35:48.147Z,101126.00
2023-10-16T04:38:32.377Z,101129.13
2023-10-16T04:41:32.339Z,101125.25
2023-10-16T04:44:14.113Z,101122.50
2023-10-16T04:46:56.934Z,101118.06
2023-10-16T04:49:29.670Z,101116.28
2023-10-16T04:52:03.300Z,101118.66
2023-10-16T04:54:59.036Z,101120.06
2023-10-16T04:57:44.417Z,101119.66
2023-10-16T05:00:29.476Z,101110.69
2023-10-16T05:03:16.674Z,101106.34
2023-10-16T05:06:04.413Z,101104.84
2023-10-16T05:09:00.220Z,101099.19
2023-10-16T05:11:34.549Z,101107.69
2023-10-16T05:14:23.395Z,101103.41
2023-10-16T05:17:08.116Z,101099.56
2023-10-16T05:19:47.900Z,101093.63
2023-10-16T05:22:33.550Z,101093.22
2023-10-16T05:25:18.820Z,101094.78
2023-10-16T05:28:05.432Z,101098.78
2023-10-16T05:30:50.586Z,101098.97
2023-10-16T05:33:36.124Z,101099.50
2023-10-16T05:36:21.596Z,101096.34
2023-10-16T05:39:15.329Z,101102.31
2023-10-16T05:42:00.749Z,101103.88
2023-10-16T05:44:47.097Z,101111.34
2023-10-16T05:47:43.866Z,101110.94
2023-10-16T05:50:29.580Z,101113.91
2023-10-16T05:53:15.022Z,101114.16
2023-10-16T05:56:00.466Z,101111.53
2023-10-16T05:58:46.128Z,101113.91
2023-10-16T06:01:32.698Z,101116.69
2023-10-16T06:04:32.846Z,101114.03
2023-10-16T06:07:18.244Z,101113.78
2023-10-16T06:10:03.243Z,101117.81
2023-10-16T06:12:48.499Z,101118.25
2023-10-16T06:15:22.110Z,101129.91
2023-10-16T06:17:53.327Z,101121.69
2023-10-16T06:20:23.182Z,101125.28
2023-10-16T06:22:52.626Z,101139.44
2023-10-16T06:25:29.873Z,101123.63
2023-10-16T06:27:58.089Z,101130.72
2023-10-16T06:30:26.110Z,101126.03
2023-10-16T06:32:55.754Z,101131.72
2023-10-16T06:35:23.581Z,101136.47
2023-10-16T06:37:53.759Z,101133.94
2023-10-16T06:40:25.798Z,101146.47
2023-10-16T06:43:10.385Z,101147.59
2023-10-16T06:45:52.653Z,101155.38
2023-10-16T06:48:22.060Z,101152.88
2023-10-16T06:50:55.340Z,101148.31
2023-10-16T06:53:24.164Z,101154.59
2023-10-16T06:55:52.787Z,101147.66
2023-10-16T06:58:22.500Z,101155.72
2023-10-16T07:00:51.364Z,101160.59
2023-10-16T07:03:19.159Z,101158.22
2023-10-16T07:05:49.453Z,101149.75
2023-10-16T07:08:21.355Z,101151.44
2023-10-16T07:10:54.747Z,101150.44
2023-10-16T07:13:31.140Z,101153.50
2023-10-16T07:16:01.174Z,101153.06
2023-10-16T07:18:31.036Z,101157.06
2023-10-16T07:21:08.611Z,101156.88
2023-10-16T07:23:38.307Z,101156.63
2023-10-16T07:26:08.055Z,101154.66
2023-10-16T07:28:35.891Z,101158.53
2023-10-16T07:31:04.338Z,101155.03
2023-10-16T07:33:33.040Z,101160.75
2023-10-16T07:36:02.707Z,101156.25
2023-10-16T07:38:30.998Z,101161.06
2023-10-16T07:41:00.469Z,101155.06
2023-10-16T07:43:30.342Z,101161.06
2023-10-16T07:46:17.320Z,101151.25
2023-10-16T07:48:47.777Z,101152.91
2023-10-16T07:51:17.486Z,101144.59
2023-10-16T07:53:45.606Z,101140.66
2023-10-16T07:56:20.574Z,101137.22
2023-10-16T07:58:50.191Z,101141.94
2023-10-16T08:01:39.992Z,101141.31
2023-10-16T08:04:08.502Z,101142.16
2023-10-16T08:06:40.487Z,101140.28
2023-10-16T08:09:26.204Z,101143.41
2023-10-16T08:11:59.311Z,101151.19
2023-10-16T08:14:29.076Z,101156.88
2023-10-16T08:17:05.576Z,101152.94
2023-10-16T08:19:35.471Z,101157.13
2023-10-16T08:22:08.341Z,101161.34
2023-10-16T08:24:44.304Z,101161.75
2023-10-16T08:27:23.310Z,101162.00
2023-10-16T08:29:55.345Z,101165.16
2023-10-16T08:32:45.964Z,101165.78
2023-10-16T08:35:18.642Z,101159.63
2023-10-16T08:37:57.826Z,101168.63
2023-10-16T08:40:34.114Z,101168.22
2023-10-16T08:43:03.817Z,101154.41
2023-10-16T08:45:33.681Z,101152.69
2023-10-16T08:48:06.429Z,101159.69
2023-10-16T08:50:42.747Z,101150.44
2023-10-16T08:53:31.804Z,101149.63
2023-10-16T08:56:04.224Z,101166.91
2023-10-16T08:58:39.369Z,101164.78
2023-10-16T09:01:09.793Z,101168.53
2023-10-16T09:03:41.791Z,101164.41
2023-10-16T09:06:09.714Z,101163.13
2023-10-16T09:08:38.840Z,101165.47
2023-10-16T09:11:09.111Z,101159.63
2023-10-16T09:13:41.228Z,101164.13
2023-10-16T09:16:14.891Z,101159.00
2023-10-16T09:18:43.908Z,101170.97
2023-10-16T09:21:24.263Z,101163.84
2023-10-16T09:23:59.589Z,101166.81
2023-10-16T09:26:33.454Z,101164.84
2023-10-16T09:29:06.308Z,101165.00
2023-10-16T09:31:34.399Z,101171.97
2023-10-16T09:34:02.422Z,101171.50
2023-10-16T09:36:37.373Z,101173.69
2023-10-16T09:39:18.268Z,101180.84
2023-10-16T09:41:48.355Z,101185.16
2023-10-16T09:44:24.484Z,101184.84
2023-10-16T09:46:54.729Z,101181.00
2023-10-16T09:49:24.869Z,101178.19
2023-10-16T09:52:06.642Z,101176.16
2023-10-16T09:54:37.739Z,101176.16
2023-10-16T09:57:09.618Z,101181.63
2023-10-16T09:59:40.890Z,101181.03
2023-10-16T10:02:17.930Z,101177.06
2023-10-16T10:04:54.925Z,101177.41
2023-10-16T10:07:35.587Z,101178.28
2023-10-16T10:10:20.693Z,101164.44
2023-10-16T10:12:52.333Z,101161.59
2023-10-16T10:15:24.001Z,101169.06
2023-10-16T10:17:55.381Z,101169.91
2023-10-16T10:20:27.261Z,101158.81
2023-10-16T10:23:00.226Z,101157.25
2023-10-16T10:25:38.834Z,101158.34
2023-10-16T10:28:17.088Z,101159.16
2023-10-16T10:30:46.569Z,101148.03
2023-10-16T10:33:15.587Z,101150.00
2023-10-16T10:35:44.445Z,101145.84
2023-10-16T10:38:22.695Z,101148.97
2023-10-16T10:41:17.006Z,101154.91
2023-10-16T10:43:49.268Z,101150.91
2023-10-16T10:46:25.992Z,101150.09
2023-10-16T10:48:55.655Z,101148.09
2023-10-16T10:51:24.136Z,101138.13
2023-10-16T10:53:56.199Z,101147.91
2023-10-16T10:56:31.147Z,101136.19
2023-10-16T10:59:05.617Z,101138.00
2023-10-16T11:01:37.758Z,101145.09
2023-10-16T11:04:10.421Z,101136.88
2023-10-16T11:06:43.729Z,101139.25
2023-10-16T11:09:19.519Z,101130.94
2023-10-16T11:11:52.088Z,101131.06
2023-10-16T11:14:34.642Z,101131.03
2023-10-16T11:17:06.544Z,101127.16
2023-10-16T11:19:46.272Z,101131.53
2023-10-16T11:22:20.154Z,101124.94
2023-10-16T11:24:49.527Z,101131.31
2023-10-16T11:27:18.789Z,101128.44
2023-10-16T11:29:47.246Z,101124.81
2023-10-16T11:32:16.200Z,101124.56
2023-10-16T11:34:45.949Z,101118.47
2023-10-16T11:37:14.784Z,101120.72
2023-10-16T11:39:45.347Z,101113.88
2023-10-16T11:42:14.332Z,101126.38
2023-10-16T11:44:44.013Z,101125.22
2023-10-16T11:47:18.954Z,101119.91
2023-10-16T11:49:54.375Z,101110.47
2023-10-16T11:52:23.718Z,101112.81
2023-10-16T11:54:57.639Z,101122.66
2023-10-16T11:57:25.937Z,101116.00
2023-10-16T11:59:56.814Z,101115.09
2023-10-16T12:05:01.964Z,101112.88
2023-10-16T12:07:29.742Z,101111.94
2023-10-16T12:10:01.792Z,101100.22
2023-10-16T12:12:30.021Z,101105.78
2023-10-16T12:14:59.067Z,101101.75
2023-10-16T12:17:29.364Z,101096.00
2023-10-16T12:19:58.888Z,101094.19
2023-10-16T12:22:26.730Z,101089.06
2023-10-16T12:24:54.613Z,101084.47
2023-10-16T12:27:22.400Z,101087.97
2023-10-16T12:29:50.251Z,101094.88
2023-10-16T12:32:19.842Z,101098.81
2023-10-16T12:34:48.278Z,101103.31
2023-10-16T12:37:16.007Z,101095.72
2023-10-16T12:39:53.996Z,101096.81
2023-10-16T12:42:22.098Z,101095.22
2023-10-16T12:44:49.964Z,101094.31
2023-10-16T12:47:32.605Z,101090.09
2023-10-16T12:50:08.794Z,101086.13
2023-10-16T12:52:36.784Z,101090.28
2023-10-16T12:55:10.175Z,101086.31
2023-10-16T12:57:38.032Z,101088.63
2023-10-16T13:00:16.191Z,101091.63
2023-10-16T13:02:47.124Z,101086.84
2023-10-16T13:05:15.450Z,101080.44
2023-10-16T13:07:47.082Z,101078.69
2023-10-16T13:10:21.263Z,101081.44
2023-10-16T13:12:49.712Z,101077.03
2023-10-16T13:15:25.808Z,101075.72
2023-10-16T13:17:55.419Z,101075.25
2023-10-16T13:20:28.502Z,101079.84
2023-10-16T13:22:57.900Z,101074.97
2023-10-16T13:25:32.083Z,101083.22
2023-10-16T13:28:00.697Z,101082.78
2023-10-16T13:30:32.598Z,101080.34
2023-10-16T13:33:08.128Z,101069.84
2023-10-16T13:35:40.804Z,101069.72
2023-10-16T13:38:10.100Z,101068.34
2023-10-16T13:40:37.976Z,101070.06
2023-10-16T13:43:11.694Z,101067.16
2023-10-16T13:45:40.399Z,101065.41
2023-10-16T13:48:11.189Z,101065.13
2023-10-16T13:50:41.619Z,101062.38
2023-10-16T13:53:11.823Z,101062.50
2023-10-16T13:55:39.613Z,101071.03
2023-10-16T13:58:07.719Z,101061.03
2023-10-16T14:00:37.657Z,101056.34
2023-10-16T14:03:08.871Z,101059.00
2023-10-16T14:05:42.347Z,101051.00
2023-10-16T14:08:12.036Z,101053.94
2023-10-16T14:10:46.973Z,101052.00
2023-10-16T14:13:20.943Z,101056.69
2023-10-16T14:15:49.504Z,101054.13
2023-10-16T14:18:22.077Z,101053.09
2023-10-16T14:20:51.255Z,101051.97
2023-10-16T14:23:20.634Z,101053.06
2023-10-16T14:25:50.198Z,101052.84
2023-10-16T14:28:26.837Z,101059.00
2023-10-16T14:30:57.422Z,101059.06
2023-10-16T14:33:26.723Z,101057.66
2023-10-16T14:35:57.529Z,101050.06
2023-10-16T14:38:25.551Z,101055.28
2023-10-16T14:40:56.609Z,101047.84
2023-10-16T14:43:24.796Z,101050.22
2023-10-16T14:45:55.119Z,101049.28
2023-10-16T14:48:24.415Z,101042.50
2023-10-16T14:50:53.988Z,101045.22
2023-10-16T14:53:26.219Z,101040.81
2023-10-16T14:55:55.007Z,101038.25
2023-10-16T14:58:35.862Z,101034.97
2023-10-16T15:01:16.718Z,101030.69
2023-10-16T15:03:45.377Z,101034.69
2023-10-16T15:06:14.160Z,101028.91
2023-10-16T15:08:44.710Z,101041.72
2023-10-16T15:11:12.938Z,101037.75
2023-10-16T15:13:43.566Z,101034.78
2023-10-16T15:16:12.012Z,101037.75
2023-10-16T15:18:40.667Z,101036.09
2023-10-16T15:21:09.003Z,101034.25
2023-10-16T15:23:37.678Z,101035.09
2023-10-16T15:26:08.066Z,101041.41
2023-10-16T15:28:46.033Z,101041.72
2023-10-16T15:31:17.115Z,101033.41
2023-10-16T15:36:33.525Z,101030.06
2023-10-16T15:39:01.624Z,101030.69
2023-10-16T15:41:31.087Z,101033.81
2023-10-16T15:44:00.398Z,101030.34
2023-10-16T15:46:32.299Z,101025.19
2023-10-16T15:49:00.987Z,101033.66
2023-10-16T15:51:31.641Z,101019.38
2023-10-16T15:54:00.563Z,101030.00
2023-10-16T15:56:31.009Z,101027.19
2023-10-16T15:58:58.804Z,101027.06
2023-10-16T16:01:27.661Z,101033.06
2023-10-16T16:06:46.410Z,101024.09
2023-10-16T16:09:14.943Z,101027.91
2023-10-16T16:11:46.409Z,101031.66
2023-10-16T16:14:19.219Z,101042.28
2023-10-16T16:16:52.333Z,101034.47
2023-10-16T16:19:22.194Z,101035.50
2023-10-16T16:21:50.871Z,101034.13
2023-10-16T16:24:18.706Z,101036.13
2023-10-16T16:26:47.952Z,101036.13
2023-10-16T16:29:15.741Z,101034.13
2023-10-16T16:31:44.520Z,101036.94
2023-10-16T16:34:12.388Z,101037.63
2023-10-16T16:36:41.593Z,101037.31
2023-10-16T16:39:13.782Z,101039.50
2023-10-16T16:41:41.849Z,101045.47
2023-10-16T16:44:11.020Z,101037.38
2023-10-16T16:46:38.911Z,101041.50
2023-10-16T16:49:11.650Z,101039.03
2023-10-16T16:51:40.153Z,101048.66
2023-10-16T16:54:08.475Z,101049.66
2023-10-16T16:56:38.524Z,101058.13
2023-10-16T16:59:10.615Z,101054.50
2023-10-16T17:01:42.825Z,101053.66
2023-10-16T17:04:11.020Z,101059.44
2023-10-16T17:06:39.295Z,101061.41
2023-10-16T17:09:08.407Z,101062.66
2023-10-16T17:11:36.128Z,101060.84
2023-10-16T17:14:05.770Z,101065.88
2023-10-16T17:16:34.054Z,101064.88
2023-10-16T17:19:05.342Z,101070.00
2023-10-16T17:21:34.449Z,101072.66
2023-10-16T17:24:04.660Z,101069.03
2023-10-16T17:26:33.801Z,101069.19
2023-10-16T17:29:01.776Z,101071.66
2023-10-16T17:31:29.582Z,101074.16
2023-10-16T17:33:57.460Z,101078.78
2023-10-16T17:36:26.682Z,101073.34
2023-10-16T17:38:54.406Z,101075.16
2023-10-16T17:41:22.723Z,101078.19
2023-10-16T17:43:50.476Z,101076.03
2023-10-16T17:46:18.381Z,101072.25
2023-10-16T17:48:46.159Z,101081.88
2023-10-16T17:51:14.145Z,101073.72
2023-10-16T17:53:43.552Z,101074.25
2023-10-16T17:56:14.133Z,101074.72
2023-10-16T17:58:42.034Z,101078.44
2023-10-16T18:01:13.945Z,101079.56
2023-10-16T18:03:42.602Z,101079.06
2023-10-16T18:06:13.066Z,101077.25
2023-10-16T18:08:44.614Z,101082.72
2023-10-16T18:11:15.862Z,101074.41
2023-10-16T18:13:44.258Z,101077.22
2023-10-16T18:16:12.392Z,101069.25
2023-10-16T18:18:40.282Z,101074.22
2023-10-16T18:21:08.076Z,101067.09
2023-10-16T18:23:36.197Z,101068.94
2023-10-16T18:26:05.019Z,101069.91
2023-10-16T18:28:34.236Z,101065.75
2023-10-16T18:31:04.192Z,101065.06
2023-10-16T18:33:32.013Z,101058.94
2023-10-16T18:36:02.978Z,101066.53
2023-10-16T18:38:31.169Z,101062.88
2023-10-16T18:41:00.476Z,101059.72
2023-10-16T18:43:28.260Z,101064.50
2023-10-16T18:45:57.609Z,101055.34
2023-10-16T18:48:25.591Z,101056.66
2023-10-16T18:50:53.550Z,101058.94
2023-10-16T18:53:23.061Z,101061.88
2023-10-16T18:55:52.342Z,101069.25
2023-10-16T18:58:20.073Z,101060.56
2023-10-16T19:00:48.015Z,101071.31
2023-10-16T19:03:17.328Z,101070.44
2023-10-16T19:05:45.660Z,101069.59
2023-10-16T19:08:13.761Z,101073.63
2023-10-16T19:10:41.465Z,101067.59
2023-10-16T19:13:12.837Z,101072.94
2023-10-16T19:15:40.913Z,101076.31
2023-10-16T19:18:12.830Z,101074.47
2023-10-16T19:20:42.193Z,101068.91
2023-10-16T19:23:09.893Z,101069.22
2023-10-16T19:25:39.033Z,101070.69
2023-10-16T19:28:08.408Z,101067.63
2023-10-16T19:30:36.219Z,101069.97
2023-10-16T19:33:05.259Z,101068.31
2023-10-16T19:35:36.572Z,101069.56
2023-10-16T19:38:05.950Z,101077.00
2023-10-16T19:40:33.706Z,101071.09
2023-10-16T19:43:01.542Z,101082.09
2023-10-16T19:45:32.096Z,101077.69
2023-10-16T19:47:59.937Z,101086.94
2023-10-16T19:50:28.352Z,101086.19
2023-10-16T19:52:56.580Z,101084.56
2023-10-16T19:55:25.725Z,101094.19
2023-10-16T19:57:54.446Z,101097.00
2023-10-16T20:00:26.035Z,101092.44
2023-10-16T20:02:55.557Z,101103.28
2023-10-16T20:05:25.240Z,101099.03
2023-10-16T20:07:54.176Z,101095.97
2023-10-16T20:10:21.940Z,101107.91
2023-10-16T20:12:54.028Z,101105.84
2023-10-16T20:15:22.174Z,101102.38
2023-10-16T20:17:51.108Z,101100.03
2023-10-16T20:20:24.190Z,101091.97
2023-10-16T20:22:54.112Z,101103.34
2023-10-16T20:25:22.586Z,101108.38
2023-10-16T20:27:53.112Z,101102.50
2023-10-16T20:30:21.182Z,101096.69
2023-10-16T20:32:49.553Z,101093.50
2023-10-16T20:35:18.217Z,101096.53
2023-10-16T20:37:51.075Z,101096.91
2023-10-16T20:40:21.315Z,101098.03
2023-10-16T20:42:49.942Z,101106.22
2023-10-16T20:45:20.411Z,101104.97
2023-10-16T20:47:51.988Z,101105.38
2023-10-16T20:50:24.159Z,101105.78
2023-10-16T20:52:52.982Z,101108.84
2023-10-16T20:55:22.451Z,101108.13
2023-10-16T20:57:51.426Z,101102.56
2023-10-16T21:00:26.408Z,101110.72
2023-10-16T21:02:58.615Z,101108.25
2023-10-16T21:05:27.472Z,101111.16
2023-10-16T21:07:57.529Z,101104.91
2023-10-16T21:10:26.672Z,101103.50
2023-10-16T21:12:54.996Z,101097.81
2023-10-16T21:15:25.627Z,101100.44
2023-10-16T21:17:55.271Z,101104.75
2023-10-16T21:20:23.141Z,101095.31
2023-10-16T21:22:53.109Z,101093.50
2023-10-16T21:25:25.136Z,101093.91
2023-10-16T21:27:54.375Z,101096.81
2023-10-16T21:30:24.066Z,101098.59
2023-10-16T21:32:54.476Z,101098.06
2023-10-16T21:35:24.243Z,101096.38
2023-10-16T21:37:52.285Z,101092.34
2023-10-16T21:40:22.706Z,101099.13
2023-10-16T21:42:50.972Z,101095.25
2023-10-16T21:45:19.068Z,101098.84
2023-10-16T21:47:47.298Z,101094.66
2023-10-16T21:50:16.420Z,101098.97
2023-10-16T21:52:44.170Z,101102.56
2023-10-16T21:55:13.316Z,101099.09
2023-10-16T21:57:41.217Z,101094.41
2023-10-16T22:00:14.215Z,101091.78
2023-10-16T22:02:44.576Z,101089.56
2023-10-16T22:05:14.035Z,101091.59
2023-10-16T22:07:43.254Z,101093.69
2023-10-16T22:10:13.009Z,101096.56
2023-10-16T22:12:41.697Z,101101.59
2023-10-16T22:15:12.315Z,101096.69
2023-10-16T22:17:40.682Z,101091.31
2023-10-16T22:20:10.657Z,101098.13
2023-10-16T22:22:38.607Z,101095.19
2023-10-16T22:25:11.165Z,101095.19
2023-10-16T22:27:40.005Z,101090.22
2023-10-16T22:30:11.440Z,101089.56
2023-10-16T22:32:39.269Z,101092.34
2023-10-16T22:35:09.318Z,101090.69
2023-10-16T22:37:37.253Z,101095.31
2023-10-16T22:40:09.242Z,101096.59
2023-10-16T22:42:38.455Z,101100.34
2023-10-16T22:45:07.701Z,101098.97
2023-10-16T22:47:35.708Z,101099.25
2023-10-16T22:50:03.666Z,101091.50
2023-10-16T22:52:31.339Z,101098.03
2023-10-16T22:55:00.630Z,101097.47
2023-10-16T22:57:28.674Z,101093.31
2023-10-16T22:59:58.662Z,101094.59
2023-10-16T23:02:26.708Z,101086.53
2023-10-16T23:04:55.071Z,101092.94
2023-10-16T23:07:22.792Z,101090.16
2023-10-16T23:09:56.627Z,101084.75
2023-10-16T23:12:35.254Z,101093.91
2023-10-16T23:15:12.486Z,101093.91
2023-10-16T23:17:41.179Z,101101.13
2023-10-16T23:20:15.517Z,101101.66
2023-10-16T23:22:43.704Z,101102.63
2023-10-16T23:25:11.417Z,101104.69
2023-10-16T23:27:43.144Z,101106.81
2023-10-16T23:30:16.407Z,101103.59
2023-10-16T23:32:47.897Z,101107.19
2023-10-16T23:35:21.037Z,101111.66
2023-10-16T23:37:49.079Z,101107.47
2023-10-16T23:40:34.695Z,101103.03
2023-10-16T23:43:09.094Z,101102.06
2023-10-16T23:45:38.523Z,101097.47
2023-10-16T23:48:18.935Z,101097.34
2023-10-16T23:50:49.519Z,101094.16
2023-10-16T23:53:31.840Z,101096.13
2023-10-16T23:56:10.426Z,101100.16
2023-10-16T23:58:43.356Z,101094.59
